createdAt,value
2022-10-01T00:00:50.501Z,46.70
2022-10-01T00:04:52.332Z,43.80
2022-10-01T00:08:46.054Z,45.80
2022-10-01T00:12:42.413Z,48.80
2022-10-01T00:16:45.640Z,47.80
2022-10-01T00:20:49.656Z,47.40
2022-10-01T00:24:44.640Z,46.90
2022-10-01T00:28:49.074Z,46.70
2022-10-01T00:32:10.463Z,48.10
2022-10-01T00:35:27.108Z,50.60
2022-10-01T00:38:45.500Z,61.30
2022-10-01T00:42:58.120Z,56.10
2022-10-01T00:46:55.440Z,57.60
2022-10-01T00:51:11.602Z,55.80
2022-10-01T00:55:12.904Z,62.50
2022-10-01T00:59:07.656Z,58.00
2022-10-01T01:03:20.074Z,60.30
2022-10-01T01:07:18.145Z,55.40
2022-10-01T01:11:11.776Z,60.00
2022-10-01T01:15:18.507Z,53.00
2022-10-01T01:19:16.006Z,54.40
2022-10-01T01:23:08.531Z,53.60
2022-10-01T01:27:03.370Z,55.90
2022-10-01T01:31:05.652Z,48.50
2022-10-01T01:34:59.161Z,51.00
2022-10-01T01:38:49.054Z,49.40
2022-10-01T01:42:58.547Z,48.60
2022-10-01T01:46:43.266Z,46.90
2022-10-01T01:50:40.787Z,48.10
2022-10-01T01:54:24.799Z,40.50
2022-10-01T01:58:19.446Z,46.40
2022-10-01T02:02:09.842Z,43.40
2022-10-01T02:06:13.754Z,43.40
2022-10-01T02:10:11.228Z,38.70
2022-10-01T02:14:39.712Z,44.40
2022-10-01T02:19:04.746Z,43.40
2022-10-01T02:23:32.973Z,41.80
2022-10-01T02:27:36.939Z,47.90
2022-10-01T02:31:40.840Z,42.30
2022-10-01T02:39:28.391Z,40.60
2022-10-01T02:43:22.599Z,47.40
2022-10-01T02:51:22.261Z,44.30
2022-10-01T02:55:29.113Z,41.00
2022-10-01T02:59:15.630Z,44.30
2022-10-01T03:02:59.648Z,39.30
2022-10-01T03:06:54.818Z,42.50
2022-10-01T03:10:48.845Z,43.00
2022-10-01T03:14:52.322Z,41.00
2022-10-01T03:18:35.688Z,38.50
2022-10-01T03:22:32.584Z,43.80
2022-10-01T03:26:26.866Z,44.00
2022-10-01T03:30:22.498Z,44.30
2022-10-01T03:34:18.059Z,43.90
2022-10-01T03:37:55.322Z,45.90
2022-10-01T03:41:59.024Z,41.60
2022-10-01T03:46:03.295Z,41.10
2022-10-01T03:49:47.055Z,43.10
2022-10-01T03:53:43.442Z,38.50
2022-10-01T03:57:26.960Z,42.00
2022-10-01T04:01:30.588Z,45.90
2022-10-01T04:05:27.603Z,45.20
2022-10-01T04:09:17.457Z,45.20
2022-10-01T04:13:13.852Z,44.10
2022-10-01T04:17:17.997Z,42.70
2022-10-01T04:21:08.646Z,43.70
2022-10-01T04:24:57.987Z,40.20
2022-10-01T04:29:02.051Z,51.30
2022-10-01T04:33:06.122Z,44.70
2022-10-01T04:37:02.609Z,45.20
2022-10-01T04:40:57.418Z,44.90
2022-10-01T04:48:24.065Z,42.10
2022-10-01T04:52:29.654Z,44.60
2022-10-01T04:56:33.510Z,43.70
2022-10-01T05:00:37.417Z,41.30
2022-10-01T05:04:34.067Z,41.90
2022-10-01T05:08:24.241Z,45.40
2022-10-01T05:12:27.230Z,42.40
2022-10-01T05:15:46.168Z,42.60
2022-10-01T05:19:34.396Z,42.50
2022-10-01T05:23:37.750Z,43.00
2022-10-01T05:27:41.472Z,42.20
2022-10-01T05:31:40.046Z,41.30
2022-10-01T05:35:35.005Z,45.80
2022-10-01T05:39:12.562Z,46.60
2022-10-01T05:43:18.059Z,52.20
2022-10-01T05:47:14.976Z,55.90
2022-10-01T05:51:18.411Z,62.30
2022-10-01T05:55:22.128Z,53.70
2022-10-01T05:59:19.892Z,61.40
2022-10-01T06:03:23.802Z,59.40
2022-10-01T06:07:20.580Z,60.50
2022-10-01T06:11:18.614Z,60.50
2022-10-01T06:15:15.070Z,58.50
2022-10-01T06:18:43.239Z,61.30
2022-10-01T06:22:32.649Z,63.30
2022-10-01T06:26:26.465Z,62.70
2022-10-01T06:30:08.287Z,56.70
2022-10-01T06:34:14.044Z,55.10
2022-10-01T06:38:06.160Z,58.90
2022-10-01T06:41:53.264Z,57.40
2022-10-01T06:45:25.656Z,50.00
2022-10-01T06:49:25.606Z,49.20
2022-10-01T06:53:00.529Z,46.70
2022-10-01T06:57:03.077Z,46.90
2022-10-01T07:00:59.024Z,38.40
2022-10-01T07:04:42.991Z,36.10
2022-10-01T07:08:26.749Z,37.70
2022-10-01T07:12:13.721Z,35.50
2022-10-01T07:16:18.213Z,35.50
2022-10-01T07:20:22.063Z,34.40
2022-10-01T07:24:18.260Z,30.20
2022-10-01T07:28:15.168Z,29.20
2022-10-01T07:35:23.208Z,27.80
2022-10-01T07:39:07.727Z,27.80
2022-10-01T07:43:01.829Z,27.80
2022-10-01T07:46:37.483Z,26.60
2022-10-01T07:50:26.681Z,25.40
2022-10-01T07:54:20.316Z,25.30
2022-10-01T07:58:13.435Z,30.10
2022-10-01T08:02:17.298Z,28.40
2022-10-01T08:09:32.640Z,26.10
2022-10-01T08:13:18.391Z,25.60
2022-10-01T08:16:39.262Z,27.40
2022-10-01T08:20:12.571Z,22.80
2022-10-01T08:23:59.606Z,24.00
2022-10-01T08:27:58.808Z,23.60
2022-10-01T08:31:55.807Z,24.30
2022-10-01T08:35:38.842Z,20.30
2022-10-01T08:39:25.328Z,19.40
2022-10-01T08:43:21.808Z,19.70
2022-10-01T08:47:08.451Z,18.40
2022-10-01T08:51:26.233Z,17.60
2022-10-01T08:55:12.821Z,16.90
2022-10-01T08:59:16.668Z,18.40
2022-10-01T09:07:03.838Z,15.20
2022-10-01T09:15:09.257Z,16.00
2022-10-01T09:19:12.049Z,15.50
2022-10-01T09:23:12.679Z,13.20
2022-10-01T09:27:06.478Z,13.10
2022-10-01T09:31:03.331Z,15.40
2022-10-01T09:35:15.205Z,16.10
2022-10-01T09:39:10.577Z,14.50
2022-10-01T09:43:04.161Z,12.90
2022-10-01T09:46:20.127Z,11.90
2022-10-01T09:50:09.805Z,12.10
2022-10-01T09:53:32.160Z,11.90
2022-10-01T09:57:18.311Z,12.50
2022-10-01T10:01:03.951Z,12.80
2022-10-01T10:04:37.996Z,12.10
2022-10-01T10:08:08.400Z,13.20
2022-10-01T10:11:43.301Z,10.60
2022-10-01T10:15:16.798Z,12.30
2022-10-01T10:18:54.228Z,10.10
2022-10-01T10:22:37.214Z,8.70
2022-10-01T10:26:34.845Z,9.80
2022-10-01T10:30:09.241Z,11.00
2022-10-01T10:33:32.045Z,12.40
2022-10-01T10:37:03.015Z,9.60
2022-10-01T10:40:55.868Z,8.60
2022-10-01T10:44:21.147Z,11.50
2022-10-01T10:47:27.908Z,7.70
2022-10-01T10:51:04.546Z,9.40
2022-10-01T10:54:50.652Z,11.80
2022-10-01T10:59:03.160Z,12.10
2022-10-01T11:02:31.695Z,12.50
2022-10-01T11:06:22.989Z,10.60
2022-10-01T11:09:50.310Z,14.80
2022-10-01T11:14:03.284Z,10.10
2022-10-01T11:17:41.154Z,8.90
2022-10-01T11:20:56.009Z,9.90
2022-10-01T11:25:04.666Z,11.10
2022-10-01T11:28:46.767Z,16.20
2022-10-01T11:32:45.576Z,8.30
2022-10-01T11:37:00.403Z,11.30
2022-10-01T11:40:47.019Z,8.10
2022-10-01T11:44:23.847Z,8.00
2022-10-01T11:48:19.197Z,10.40
2022-10-01T11:51:49.767Z,8.00
2022-10-01T11:55:06.621Z,8.40
2022-10-01T11:58:47.800Z,10.00
2022-10-01T12:01:54.928Z,7.50
2022-10-01T12:05:26.317Z,8.00
2022-10-01T12:08:55.155Z,7.70
2022-10-01T12:11:52.729Z,8.80
2022-10-01T12:15:16.693Z,8.30
2022-10-01T12:18:31.194Z,7.50
2022-10-01T12:22:24.361Z,11.40
2022-10-01T12:25:49.183Z,6.10
2022-10-01T12:29:04.936Z,5.60
2022-10-01T12:32:24.795Z,7.80
2022-10-01T12:39:19.536Z,7.30
2022-10-01T12:42:34.755Z,7.90
2022-10-01T12:46:11.451Z,7.40
2022-10-01T12:49:22.473Z,10.30
2022-10-01T12:53:01.124Z,9.70
2022-10-01T12:57:12.165Z,8.10
2022-10-01T13:00:36.183Z,7.50
2022-10-01T13:04:12.496Z,6.90
2022-10-01T13:07:46.900Z,5.10
2022-10-01T13:11:52.847Z,5.30
2022-10-01T13:15:59.100Z,5.80
2022-10-01T13:19:49.157Z,5.40
2022-10-01T13:23:43.775Z,4.40
2022-10-01T13:27:21.831Z,6.50
2022-10-01T13:31:06.723Z,6.10
2022-10-01T13:34:46.670Z,7.30
2022-10-01T13:38:37.623Z,9.40
2022-10-01T13:45:11.800Z,6.80
2022-10-01T13:49:04.560Z,11.20
2022-10-01T13:52:38.691Z,7.20
2022-10-01T13:56:35.944Z,10.20
2022-10-01T13:59:56.634Z,7.10
2022-10-01T14:03:35.903Z,10.40
2022-10-01T14:07:24.538Z,13.40
2022-10-01T14:10:58.586Z,10.30
2022-10-01T14:14:49.513Z,10.60
2022-10-01T14:18:52.557Z,10.30
2022-10-01T14:22:25.791Z,11.10
2022-10-01T14:26:36.605Z,15.40
2022-10-01T14:30:30.701Z,14.40
2022-10-01T14:34:23.323Z,14.20
2022-10-01T14:37:41.806Z,13.80
2022-10-01T14:40:55.538Z,9.70
2022-10-01T14:44:44.751Z,8.30
2022-10-01T14:48:41.758Z,8.50
2022-10-01T14:52:10.224Z,2.40
2022-10-01T14:55:51.892Z,2.80
2022-10-01T14:59:46.453Z,2.20
2022-10-01T15:03:27.233Z,2.50
2022-10-01T15:07:31.237Z,3.80
2022-10-01T15:11:28.649Z,2.70
2022-10-01T15:15:06.267Z,4.20
2022-10-01T15:19:01.039Z,4.90
2022-10-01T15:23:07.385Z,4.70
2022-10-01T15:27:00.953Z,6.10
2022-10-01T15:31:04.772Z,4.00
2022-10-01T15:34:52.502Z,7.10
2022-10-01T15:38:46.171Z,11.90
2022-10-01T15:43:05.272Z,7.10
2022-10-01T15:46:53.088Z,7.10
2022-10-01T15:50:42.907Z,6.70
2022-10-01T15:54:36.619Z,6.40
2022-10-01T15:58:45.305Z,8.90
2022-10-01T16:02:38.123Z,10.00
2022-10-01T16:06:36.168Z,9.50
2022-10-01T16:10:40.221Z,7.90
2022-10-01T16:14:40.678Z,9.40
2022-10-01T16:18:40.826Z,10.00
2022-10-01T16:22:42.779Z,8.30
2022-10-01T16:26:29.020Z,8.30
2022-10-01T16:30:24.104Z,11.60
2022-10-01T16:34:19.117Z,8.90
2022-10-01T16:38:22.847Z,11.90
2022-10-01T16:42:26.703Z,10.80
2022-10-01T16:46:30.219Z,10.00
2022-10-01T16:50:26.784Z,12.90
2022-10-01T16:54:21.788Z,10.40
2022-10-01T16:58:25.970Z,11.30
2022-10-01T17:02:30.938Z,10.20
2022-10-01T17:06:10.653Z,12.70
2022-10-01T17:10:06.957Z,9.50
2022-10-01T17:14:03.533Z,12.10
2022-10-01T17:18:07.261Z,11.70
2022-10-01T17:22:11.035Z,11.90
2022-10-01T17:25:38.651Z,9.90
2022-10-01T17:29:42.412Z,10.00
2022-10-01T17:33:29.931Z,11.30
2022-10-01T17:37:17.222Z,10.90
2022-10-01T17:41:21.069Z,9.00
2022-10-01T17:45:07.748Z,8.40
2022-10-01T17:49:01.568Z,9.10
2022-10-01T17:52:57.937Z,8.20
2022-10-01T17:57:01.831Z,10.00
2022-10-01T18:04:11.523Z,10.60
2022-10-01T18:07:39.108Z,9.30
2022-10-01T18:11:30.443Z,10.40
2022-10-01T18:15:12.944Z,8.00
2022-10-01T18:19:52.474Z,9.60
2022-10-01T18:23:26.813Z,9.40
2022-10-01T18:27:01.602Z,10.50
2022-10-01T18:30:48.438Z,10.50
2022-10-01T18:34:38.047Z,9.20
2022-10-01T18:38:20.932Z,10.20
2022-10-01T18:41:47.261Z,14.10
2022-10-01T18:45:26.608Z,11.20
2022-10-01T18:48:52.634Z,11.80
2022-10-01T18:52:48.949Z,10.90
2022-10-01T18:56:44.624Z,10.10
2022-10-01T19:00:41.815Z,11.20
2022-10-01T19:05:00.743Z,13.10
2022-10-01T19:08:51.047Z,11.20
2022-10-01T19:12:56.181Z,12.30
2022-10-01T19:17:14.742Z,12.50
2022-10-01T19:21:14.543Z,15.90
2022-10-01T19:24:48.822Z,12.60
2022-10-01T19:28:36.957Z,10.80
2022-10-01T19:32:48.059Z,12.30
2022-10-01T19:36:34.252Z,12.50
2022-10-01T19:40:38.509Z,13.00
2022-10-01T19:44:57.409Z,12.40
2022-10-01T19:49:02.234Z,12.00
2022-10-01T19:53:06.241Z,12.20
2022-10-01T20:00:11.639Z,15.00
2022-10-01T20:04:02.936Z,12.70
2022-10-01T20:07:45.871Z,14.50
2022-10-01T20:11:49.170Z,12.20
2022-10-01T20:15:34.681Z,12.30
2022-10-01T20:19:31.319Z,14.10
2022-10-01T20:23:46.989Z,13.70
2022-10-01T20:27:49.470Z,12.00
2022-10-01T20:31:53.427Z,11.30
2022-10-01T20:35:49.140Z,9.40
2022-10-01T20:40:06.949Z,10.20
2022-10-01T20:44:19.820Z,7.70
2022-10-01T20:48:06.185Z,11.90
2022-10-01T20:52:01.802Z,10.80
2022-10-01T20:56:01.741Z,11.70
2022-10-01T20:59:57.194Z,9.40
2022-10-01T21:03:43.763Z,9.10
2022-10-01T21:07:56.675Z,11.20
2022-10-01T21:11:52.299Z,12.20
2022-10-01T21:15:39.402Z,15.30
2022-10-01T21:19:53.069Z,11.60
2022-10-01T21:24:05.827Z,11.10
2022-10-01T21:27:52.187Z,10.70
2022-10-01T21:31:59.493Z,10.20
2022-10-01T21:36:09.222Z,10.60
2022-10-01T21:40:08.996Z,11.50
2022-10-01T21:43:59.240Z,11.80
2022-10-01T21:47:54.606Z,11.80
2022-10-01T21:51:47.414Z,9.40
2022-10-01T21:55:39.005Z,11.90
2022-10-01T21:59:38.352Z,9.70
2022-10-01T22:03:37.948Z,19.70
2022-10-01T22:07:25.948Z,14.40
2022-10-01T22:11:29.780Z,8.90
2022-10-01T22:15:23.702Z,11.40
2022-10-01T22:19:27.629Z,8.10
2022-10-01T22:22:54.353Z,10.30
2022-10-01T22:26:36.297Z,13.80
2022-10-01T22:30:18.960Z,10.60
2022-10-01T22:34:22.683Z,8.60
2022-10-01T22:38:06.589Z,11.10
2022-10-01T22:42:15.534Z,11.60
2022-10-01T22:46:06.802Z,7.70
2022-10-01T22:49:59.961Z,9.30
2022-10-01T22:54:28.267Z,8.70
2022-10-01T22:58:48.100Z,9.50
2022-10-01T23:03:04.228Z,8.10
2022-10-01T23:06:36.970Z,6.90
2022-10-01T23:10:27.299Z,6.50
2022-10-01T23:14:25.778Z,6.00
2022-10-01T23:18:05.188Z,9.60
2022-10-01T23:22:00.529Z,7.70
2022-10-01T23:26:19.434Z,7.50
2022-10-01T23:30:19.631Z,8.50
2022-10-01T23:34:29.238Z,9.00
2022-10-01T23:38:27.414Z,8.40
2022-10-01T23:42:16.400Z,6.60
2022-10-01T23:46:29.030Z,6.30
2022-10-01T23:50:24.402Z,9.20
2022-10-01T23:54:33.985Z,10.50
2022-10-01T23:58:21.166Z,7.20
